Time;durP1;ratioP1;P1;durP2;ratioP2;P2;SDS_P1;SDS_P2;PMS_P1;PMS_P2;Temp;Humidity;BMP_temperature;BMP_pressure;BME280_temperature;BME280_humidity;BME280_pressure;Samples;Min_cycle;Max_cycle;Signal;HPM_P1;HPM_P2
2023/03/01 00:03:09;;;;;;;2.10;1.20;;;17.80;57.30;;;;;;10499951;28;20146;-26
2023/03/01 00:08:11;;;;;;;3.70;1.20;;;17.70;57.30;;;;;;10501956;28;20037;-24
2023/03/01 00:13:13;;;;;;;2.80;1.13;;;17.60;57.00;;;;;;10500596;28;20507;-25
2023/03/01 00:18:16;;;;;;;3.22;1.30;;;17.60;57.00;;;;;;10489536;28;20558;-24
2023/03/01 00:23:18;;;;;;;2.55;1.63;;;17.50;57.30;;;;;;10492182;28;20055;-24
2023/03/01 00:28:20;;;;;;;2.45;1.38;;;17.60;57.80;;;;;;10488434;28;20076;-25
2023/03/01 00:33:23;;;;;;;1.98;1.10;;;17.40;57.10;;;;;;10493248;28;20551;-23
2023/03/01 00:38:25;;;;;;;1.88;1.08;;;17.50;57.20;;;;;;10494004;28;20117;-25
2023/03/01 00:43:27;;;;;;;3.20;1.57;;;17.30;57.20;;;;;;10500906;28;20076;-24
2023/03/01 00:48:30;;;;;;;3.60;1.00;;;17.30;57.70;;;;;;10497741;28;20486;-24
2023/03/01 00:53:33;;;;;;;1.58;1.00;;;17.30;57.20;;;;;;10490828;28;20522;-25
2023/03/01 00:58:35;;;;;;;3.00;1.27;;;17.20;57.70;;;;;;10491055;28;20080;-24
2023/03/01 01:03:39;;;;;;;1.92;1.02;;;17.20;57.60;;;;;;10489681;28;20056;-25
2023/03/01 01:08:40;;;;;;;1.20;1.00;;;17.00;57.50;;;;;;10494713;28;20172;-25
2023/03/01 01:13:44;;;;;;;1.50;1.17;;;17.00;58.10;;;;;;10489733;28;20075;-24
2023/03/01 01:18:47;;;;;;;3.05;0.90;;;17.00;58.40;;;;;;10491314;28;20489;-24
2023/03/01 01:23:50;;;;;;;2.67;1.20;;;17.00;57.70;;;;;;10492723;28;20063;-24
2023/03/01 01:28:52;;;;;;;;;;;17.00;57.70;;;;;;10495460;28;20443;-24
2023/03/01 01:33:56;;;;;;;2.67;1.37;;;16.90;58.10;;;;;;10491482;28;19920;-24
2023/03/01 01:38:58;;;;;;;1.88;1.10;;;16.90;57.80;;;;;;10491552;28;20056;-23
2023/03/01 01:44:16;;;;;;;2.10;0.93;;;16.90;58.50;;;;;;10486176;28;20050;-24
2023/03/01 01:49:27;;;;;;;1.80;1.15;;;16.90;57.70;;;;;;10487656;28;20450;-24
2023/03/01 01:54:36;;;;;;;1.70;1.00;;;16.80;58.10;;;;;;10487952;28;20044;-24
2023/03/01 01:59:38;;;;;;;2.42;0.80;;;16.70;58.40;;;;;;10490730;28;20147;-23
2023/03/01 02:04:42;;;;;;;1.00;0.70;;;16.70;57.90;;;;;;10480989;28;20059;-24
2023/03/01 02:09:47;;;;;;;1.10;1.00;;;16.50;57.30;;;;;;10494130;28;20517;-24
2023/03/01 02:14:49;;;;;;;1.27;0.95;;;16.50;58.40;;;;;;10490300;28;20052;-24
2023/03/01 02:20:07;;;;;;;1.00;0.80;;;16.50;58.80;;;;;;10490538;28;20046;-24
2023/03/01 02:25:21;;;;;;;1.45;0.77;;;16.60;58.30;;;;;;10488736;28;20147;-23
2023/03/01 02:30:26;;;;;;;2.35;1.13;;;16.50;58.20;;;;;;10487065;28;20072;-24
2023/03/01 02:35:27;;;;;;;1.73;1.20;;;16.60;58.60;;;;;;10494739;28;20146;-24
2023/03/01 02:40:31;;;;;;;2.60;1.33;;;16.50;58.60;;;;;;10489674;28;20049;-23
2023/03/01 02:45:34;;;;;;;1.77;1.13;;;16.50;58.20;;;;;;10498896;28;20068;-23
2023/03/01 02:51:00;;;;;;;1.08;0.95;;;16.50;58.40;;;;;;10489684;28;20060;-23
2023/03/01 02:56:02;;;;;;;1.35;0.85;;;16.30;58.80;;;;;;10492599;28;20424;-24
2023/03/01 03:01:06;;;;;;;1.27;1.13;;;16.30;59.10;;;;;;10490524;28;20052;-26
2023/03/01 03:06:07;;;;;;;3.58;1.10;;;16.50;58.00;;;;;;10489944;28;20462;-25
2023/03/01 03:11:10;;;;;;;2.57;1.00;;;16.20;58.30;;;;;;10489248;28;20055;-25
2023/03/01 03:16:13;;;;;;;1.35;0.80;;;16.10;58.30;;;;;;10487440;28;20490;-24
2023/03/01 03:21:16;;;;;;;1.80;1.08;;;16.10;58.00;;;;;;10488688;28;20123;-25
2023/03/01 03:26:17;;;;;;;2.45;1.10;;;16.10;59.00;;;;;;10487993;28;20036;-25
2023/03/01 03:31:21;;;;;;;1.87;0.70;;;16.00;58.20;;;;;;10492550;28;20055;-25
2023/03/01 03:36:25;;;;;;;0.95;0.75;;;16.00;59.00;;;;;;10497526;28;20044;-24
2023/03/01 03:41:27;;;;;;;0.88;0.77;;;16.10;59.20;;;;;;10506461;28;20036;-26
2023/03/01 03:46:30;;;;;;;1.23;0.87;;;16.10;59.60;;;;;;10496945;28;20076;-26
2023/03/01 03:51:32;;;;;;;1.45;1.10;;;16.00;59.00;;;;;;10501072;28;20082;-25
2023/03/01 03:56:34;;;;;;;1.13;0.77;;;16.00;58.90;;;;;;10499899;28;20075;-25
2023/03/01 04:01:38;;;;;;;1.05;0.75;;;16.00;58.70;;;;;;10505069;28;20044;-24
2023/03/01 04:06:39;;;;;;;1.75;0.95;;;15.90;58.80;;;;;;10498933;28;20527;-24
2023/03/01 04:11:41;;;;;;;1.07;0.87;;;15.80;58.80;;;;;;10505163;28;20052;-24
2023/03/01 04:16:44;;;;;;;2.10;1.07;;;15.80;59.00;;;;;;10493886;28;20048;-24
2023/03/01 04:21:46;;;;;;;3.25;1.30;;;15.80;59.30;;;;;;10505855;28;20043;-24
2023/03/01 04:26:48;;;;;;;3.63;1.20;;;15.80;59.30;;;;;;10497636;28;20102;-24
2023/03/01 04:31:51;;;;;;;1.30;0.93;;;15.80;59.30;;;;;;10499361;28;20132;-25
2023/03/01 04:36:53;;;;;;;1.17;0.98;;;15.70;59.30;;;;;;10489148;28;20090;-24
2023/03/01 04:41:55;;;;;;;1.47;0.97;;;15.70;58.70;;;;;;10489598;28;20069;-25
2023/03/01 04:46:58;;;;;;;2.53;0.93;;;15.90;59.20;;;;;;10513686;28;20036;-25
2023/03/01 04:52:01;;;;;;;0.68;0.65;;;16.30;58.20;;;;;;10491999;28;20139;-24
2023/03/01 04:57:04;;;;;;;1.20;0.98;;;16.70;57.40;;;;;;10514696;28;20052;-23
2023/03/01 05:02:07;;;;;;;0.70;0.60;;;16.80;57.10;;;;;;10495411;28;20044;-24
2023/03/01 05:07:09;;;;;;;1.23;1.00;;;16.90;56.90;;;;;;10501973;28;20110;-26
2023/03/01 05:12:11;;;;;;;1.20;0.90;;;16.90;56.70;;;;;;10492783;28;20048;-24
2023/03/01 05:17:14;;;;;;;0.90;0.80;;;17.10;56.60;;;;;;10496074;28;20389;-23
2023/03/01 05:22:16;;;;;;;1.70;0.90;;;17.20;56.40;;;;;;10500775;28;20041;-24
2023/03/01 05:27:18;;;;;;;0.90;0.70;;;17.20;56.40;;;;;;10495168;28;20052;-24
2023/03/01 05:32:22;;;;;;;1.03;0.80;;;17.20;56.30;;;;;;10499878;28;20172;-25
2023/03/01 05:37:23;;;;;;;1.05;0.80;;;17.30;56.30;;;;;;10495764;28;20530;-25
2023/03/01 05:42:25;;;;;;;0.88;0.70;;;17.30;56.50;;;;;;10491292;28;20045;-25
2023/03/01 05:47:28;;;;;;;1.52;1.00;;;17.30;56.50;;;;;;10493877;28;20127;-24
2023/03/01 05:52:30;;;;;;;1.63;1.08;;;17.20;56.60;;;;;;10487409;28;20037;-25
2023/03/01 05:57:32;;;;;;;1.13;0.67;;;17.20;56.70;;;;;;10491992;28;20094;-24
2023/03/01 06:02:36;;;;;;;1.02;0.63;;;17.20;57.50;;;;;;10487436;28;20863;-24
2023/03/01 06:07:38;;;;;;;1.15;0.60;;;17.20;56.90;;;;;;10504860;28;20476;-24
2023/03/01 06:12:42;;;;;;;1.70;0.65;;;17.10;57.10;;;;;;10492637;28;20060;-24
2023/03/01 06:17:46;;;;;;;2.75;0.82;;;17.00;57.10;;;;;;10499885;28;20140;-24
2023/03/01 06:22:49;;;;;;;1.15;0.60;;;17.10;56.90;;;;;;10493393;28;20037;-24
2023/03/01 06:27:52;;;;;;;2.47;0.80;;;17.10;57.00;;;;;;10476024;28;20129;-26
2023/03/01 06:33:00;;;;;;;0.75;0.63;;;17.10;57.00;;;;;;10486160;28;20047;-26
2023/03/01 06:38:04;;;;;;;0.90;0.75;;;17.00;57.10;;;;;;10491016;28;20044;-23
2023/03/01 06:43:07;;;;;;;1.77;1.10;;;17.10;57.00;;;;;;10481907;28;20140;-23
2023/03/01 06:48:10;;;;;;;1.40;1.00;;;17.10;57.00;;;;;;10473220;28;20649;-25
2023/03/01 06:53:12;;;;;;;2.63;1.33;;;17.10;57.00;;;;;;10484319;28;20068;-25
2023/03/01 06:58:14;;;;;;;3.93;2.03;;;17.10;57.00;;;;;;10487645;28;20083;-24
2023/03/01 07:15:24;;;;;;;3.60;2.10;;;17.10;56.30;;;;;;10465177;27;2033857;-24
2023/03/01 07:20:26;;;;;;;3.70;1.40;;;17.10;56.90;;;;;;10548567;28;20086;-23
2023/03/01 07:25:28;;;;;;;2.60;1.30;;;17.10;56.90;;;;;;10539345;28;20040;-24
2023/03/01 07:30:32;;;;;;;0.98;0.88;;;17.20;56.90;;;;;;10547425;28;20137;-23
2023/03/01 07:35:34;;;;;;;5.65;1.08;;;17.10;57.00;;;;;;10544884;28;20139;-25
2023/03/01 07:40:36;;;;;;;1.75;0.93;;;17.10;56.90;;;;;;10548347;28;20046;-25
2023/03/01 07:45:39;;;;;;;2.90;1.83;;;17.10;57.00;;;;;;10541757;28;20119;-25
2023/03/01 07:50:41;;;;;;;3.95;1.90;;;17.00;57.20;;;;;;10557788;28;20048;-24
2023/03/01 07:55:43;;;;;;;3.58;1.58;;;17.00;57.20;;;;;;10552767;28;20109;-24
2023/03/01 08:00:47;;;;;;;4.95;1.60;;;16.90;57.40;;;;;;10571010;28;20567;-24
2023/03/01 08:05:48;;;;;;;3.90;1.40;;;16.90;57.60;;;;;;10559794;28;20075;-24
2023/03/01 08:10:50;;;;;;;3.30;1.20;;;16.80;57.70;;;;;;10564686;28;20080;-25
2023/03/01 08:15:54;;;;;;;2.70;1.27;;;16.80;57.80;;;;;;10546832;28;20052;-24
2023/03/01 08:20:55;;;;;;;3.75;1.40;;;16.80;57.90;;;;;;10535048;28;20506;-24
2023/03/01 08:26:05;;;;;;;3.70;1.30;;;16.70;58.10;;;;;;10516081;28;20148;-24
2023/03/01 08:31:16;;;;;;;3.17;1.20;;;16.70;58.00;;;;;;10522904;28;20128;-24
2023/03/01 08:36:20;;;;;;;4.07;1.70;;;16.60;58.20;;;;;;10519977;28;20040;-24
2023/03/01 08:41:23;;;;;;;6.82;1.63;;;16.70;58.20;;;;;;10516506;28;20404;-25
2023/03/01 08:46:26;;;;;;;6.63;1.23;;;16.70;58.20;;;;;;10512965;28;20119;-25
2023/03/01 08:51:29;;;;;;;5.65;1.08;;;16.70;58.20;;;;;;10509281;28;20127;-24
2023/03/01 08:56:30;;;;;;;4.82;1.35;;;16.70;58.10;;;;;;10518877;28;20711;-25
2023/03/01 09:01:34;;;;;;;3.33;1.63;;;16.70;57.40;;;;;;10519718;28;20128;-24
2023/03/01 09:06:36;;;;;;;3.55;1.65;;;16.00;59.40;;;;;;10524290;28;20108;-25
2023/03/01 09:11:38;;;;;;;;;;;16.20;58.90;;;;;;10530289;28;20113;-25
2023/03/01 09:16:41;;;;;;;7.22;1.40;;;16.70;58.10;;;;;;10518895;28;19926;-25
2023/03/01 09:21:51;;;;;;;10.60;1.48;;;16.40;58.70;;;;;;10525266;28;20549;-26
2023/03/01 09:26:57;;;;;;;8.50;1.70;;;16.30;58.90;;;;;;10515227;28;20449;-27
2023/03/01 09:32:00;;;;;;;5.97;1.20;;;16.40;58.50;;;;;;10527932;28;20039;-25
2023/03/01 09:37:02;;;;;;;5.07;1.13;;;16.40;58.20;;;;;;10512079;28;20127;-23
2023/03/01 09:42:05;;;;;;;4.68;1.35;;;16.70;57.80;;;;;;10521287;28;20079;-24
2023/03/01 09:47:13;;;;;;;3.22;1.60;;;16.60;57.90;;;;;;10513354;28;20089;-25
2023/03/01 09:52:25;;;;;;;2.55;1.65;;;16.80;57.60;;;;;;10509674;28;20452;-26
2023/03/01 09:57:33;;;;;;;1.80;1.35;;;16.70;58.00;;;;;;10514379;28;20044;-24
2023/03/01 10:02:43;;;;;;;6.05;1.75;;;16.70;57.60;;;;;;10513903;28;20128;-24
2023/03/01 10:07:55;;;;;;;1.70;0.88;;;16.80;57.40;;;;;;10517533;28;20047;-24
2023/03/01 10:12:57;;;;;;;1.53;1.10;;;16.80;57.20;;;;;;10521087;28;20091;-25
2023/03/01 10:18:07;;;;;;;4.47;1.10;;;16.80;57.20;;;;;;10510017;28;20123;-25
2023/03/01 10:23:09;;;;;;;5.05;1.02;;;16.90;57.00;;;;;;10506986;28;20466;-25
2023/03/01 10:28:17;;;;;;;3.65;1.25;;;16.90;56.50;;;;;;10520573;28;20138;-24
2023/03/01 10:33:25;;;;;;;3.60;1.60;;;16.90;56.80;;;;;;10515019;28;20049;-27
2023/03/01 10:38:29;;;;;;;3.63;1.42;;;16.90;56.50;;;;;;10518429;28;20461;-24
2023/03/01 10:43:43;;;;;;;4.32;1.40;;;17.00;56.60;;;;;;10493473;28;20094;-24
2023/03/01 10:49:05;;;;;;;3.58;1.25;;;16.70;57.10;;;;;;10513871;28;20399;-26
2023/03/01 10:54:17;;;;;;;2.33;0.93;;;16.80;57.00;;;;;;10518234;28;20070;-24
2023/03/01 10:59:29;;;;;;;2.63;1.27;;;16.80;56.80;;;;;;10528442;28;20075;-24
2023/03/01 11:04:32;;;;;;;2.85;0.90;;;17.00;56.40;;;;;;10523894;28;21246;-25
2023/03/01 11:09:37;;;;;;;1.63;1.00;;;16.90;56.30;;;;;;10513517;28;20064;-25
2023/03/01 11:14:46;;;;;;;1.45;1.10;;;16.90;56.40;;;;;;10511406;28;20493;-24
2023/03/01 11:20:03;;;;;;;1.60;1.20;;;17.00;56.00;;;;;;10510564;28;21616;-25
2023/03/01 11:25:09;;;;;;;1.75;1.15;;;16.60;56.70;;;;;;10514826;28;20480;-24
2023/03/01 11:30:20;;;;;;;1.17;0.95;;;16.90;56.10;;;;;;10512907;28;20098;-26
2023/03/01 11:35:26;;;;;;;2.22;1.00;;;16.80;56.70;;;;;;10517957;28;20407;-24
2023/03/01 11:40:34;;;;;;;0.98;0.85;;;17.00;55.90;;;;;;10523190;28;20647;-24
2023/03/01 11:45:47;;;;;;;3.00;0.82;;;17.00;55.70;;;;;;10516234;28;20116;-24
2023/03/01 11:50:51;;;;;;;3.03;0.95;;;17.00;55.60;;;;;;10524006;28;20063;-23
2023/03/01 11:56:04;;;;;;;1.08;0.88;;;17.10;55.70;;;;;;10510327;28;20131;-22
2023/03/01 12:01:32;;;;;;;3.92;1.00;;;17.20;55.20;;;;;;10513615;28;20067;-24
2023/03/01 12:06:51;;;;;;;2.15;1.38;;;17.20;55.10;;;;;;10527033;28;20032;-24
2023/03/01 12:12:23;;;;;;;2.25;1.13;;;16.90;55.50;;;;;;10535276;28;20480;-23
2023/03/01 12:17:48;;;;;;;1.55;1.00;;;17.00;55.60;;;;;;10511686;28;20135;-23
2023/03/01 12:23:08;;;;;;;3.17;1.55;;;17.10;55.70;;;;;;10519508;28;20557;-25
2023/03/01 12:28:33;;;;;;;2.90;1.20;;;17.10;55.60;;;;;;10515996;28;20090;-24
2023/03/01 12:33:45;;;;;;;1.60;1.10;;;16.40;57.60;;;;;;10514087;28;20552;-24
2023/03/01 12:38:50;;;;;;;;;;;16.70;56.80;;;;;;10529268;28;20044;-24
2023/03/01 12:44:03;;;;;;;3.28;1.45;;;16.30;57.60;;;;;;10521621;28;20019;-25
2023/03/01 12:49:11;;;;;;;4.03;0.90;;;16.70;56.90;;;;;;10540705;28;20052;-22
2023/03/01 12:54:20;;;;;;;1.90;1.00;;;16.60;57.00;;;;;;10515930;28;20045;-24
2023/03/01 12:59:29;;;;;;;2.20;1.58;;;17.00;56.20;;;;;;10526472;28;20072;-24
2023/03/01 13:04:41;;;;;;;1.70;1.20;;;16.70;57.00;;;;;;10519223;28;20498;-25
2023/03/01 13:09:51;;;;;;;4.10;1.35;;;17.00;56.30;;;;;;10522186;28;20079;-25
2023/03/01 13:14:55;;;;;;;3.55;2.25;;;17.20;55.60;;;;;;10522192;28;20483;-25
2023/03/01 13:19:58;;;;;;;1.25;0.73;;;17.00;55.40;;;;;;10513534;28;20562;-25
2023/03/01 13:25:15;;;;;;;7.90;1.10;;;17.40;54.70;;;;;;10518674;28;20036;-25
2023/03/01 13:30:50;;;;;;;6.72;1.65;;;17.30;55.00;;;;;;10513534;28;20495;-25
2023/03/01 13:35:53;;;;;;;5.45;1.27;;;17.00;56.30;;;;;;10352110;28;20137;-24
2023/03/01 13:41:00;;;;;;;2.67;1.10;;;16.90;56.80;;;;;;10470447;28;20139;-24
2023/03/01 13:46:08;;;;;;;4.57;0.80;;;17.10;55.80;;;;;;10528396;28;20443;-29
2023/03/01 13:51:13;;;;;;;3.33;1.65;;;17.30;55.20;;;;;;10524355;28;20490;-24
2023/03/01 13:56:18;;;;;;;4.03;1.75;;;17.70;54.40;;;;;;10516195;28;20048;-24
2023/03/01 14:01:26;;;;;;;3.30;1.38;;;18.00;53.80;;;;;;10513609;28;20040;-24
2023/03/01 14:06:30;;;;;;;2.30;1.20;;;17.80;54.90;;;;;;10516877;28;20093;-23
2023/03/01 14:12:13;;;;;;;4.95;1.30;;;18.20;54.00;;;;;;10514926;28;20044;-27
2023/03/01 14:17:36;;;;;;;3.53;1.10;;;18.50;53.70;;;;;;10502634;28;20044;-24
2023/03/01 14:22:41;;;;;;;2.70;1.00;;;18.70;53.40;;;;;;10500023;28;20124;-24
2023/03/01 14:27:45;;;;;;;1.25;0.90;;;18.90;53.10;;;;;;10513899;28;20052;-24
2023/03/01 14:32:53;;;;;;;3.33;1.23;;;19.00;53.10;;;;;;10512810;28;20135;-23
2023/03/01 14:37:55;;;;;;;2.83;0.80;;;19.30;53.40;;;;;;10518443;28;20421;-24
2023/03/01 14:43:01;;;;;;;7.30;1.10;;;19.30;53.30;;;;;;10509655;28;20040;-24
2023/03/01 14:48:06;;;;;;;1.73;1.10;;;19.40;53.20;;;;;;10521740;28;20388;-24
2023/03/01 14:53:17;;;;;;;2.78;1.10;;;19.50;53.40;;;;;;10518901;28;20048;-24
2023/03/01 14:58:23;;;;;;;2.80;1.20;;;19.60;53.30;;;;;;10503547;28;20075;-25
2023/03/01 15:03:31;;;;;;;2.90;1.40;;;19.70;53.40;;;;;;10500537;28;20047;-24
2023/03/01 15:08:36;;;;;;;3.80;1.13;;;19.80;53.30;;;;;;10526638;28;20046;-26
2023/03/01 15:13:39;;;;;;;8.18;3.22;;;19.90;53.30;;;;;;10498433;28;20086;-27
2023/03/01 15:18:45;;;;;;;10.48;5.57;;;20.00;53.30;;;;;;10506923;28;20051;-23
2023/03/01 15:23:53;;;;;;;5.35;2.53;;;20.00;54.00;;;;;;10505785;28;20048;-25
2023/03/01 15:28:59;;;;;;;1.98;1.52;;;19.90;55.30;;;;;;10515517;28;20117;-25
2023/03/01 15:34:21;;;;;;;1.42;1.15;;;20.00;55.10;;;;;;10518147;28;20134;-24
2023/03/01 15:39:42;;;;;;;2.33;1.30;;;20.10;55.00;;;;;;10519339;28;20529;-23
2023/03/01 15:44:45;;;;;;;3.22;1.27;;;20.20;55.00;;;;;;10515352;28;20055;-27
2023/03/01 15:49:48;;;;;;;4.25;1.13;;;20.20;55.10;;;;;;10528612;28;20043;-25
2023/03/01 15:54:50;;;;;;;2.70;1.13;;;20.40;54.80;;;;;;10516970;28;20068;-25
2023/03/01 15:59:53;;;;;;;3.33;0.98;;;20.40;54.20;;;;;;10523857;28;20480;-27
2023/03/01 16:04:56;;;;;;;2.95;1.08;;;20.50;54.00;;;;;;10521797;28;20124;-29
2023/03/01 16:09:58;;;;;;;1.70;0.77;;;20.50;53.70;;;;;;10525857;28;20043;-25
2023/03/01 16:15:02;;;;;;;;;;;20.60;53.50;;;;;;10521519;28;20048;-24
2023/03/01 16:20:05;;;;;;;1.88;1.08;;;20.80;52.90;;;;;;10521266;28;19919;-24
2023/03/01 16:25:09;;;;;;;4.85;1.10;;;20.90;52.50;;;;;;10510001;28;20435;-25
2023/03/01 16:30:13;;;;;;;4.05;0.98;;;20.90;52.20;;;;;;10516352;28;20112;-24
2023/03/01 16:35:19;;;;;;;1.50;1.08;;;21.00;51.90;;;;;;10515255;28;20071;-25
2023/03/01 16:40:22;;;;;;;0.98;0.77;;;21.10;51.80;;;;;;10517226;28;20082;-25
2023/03/01 16:45:27;;;;;;;2.67;0.70;;;21.30;51.10;;;;;;10513379;28;21418;-27
2023/03/01 16:50:29;;;;;;;2.15;1.05;;;21.30;50.80;;;;;;10516218;28;20119;-26
2023/03/01 16:55:31;;;;;;;2.90;0.82;;;21.30;50.60;;;;;;10518338;28;20083;-24
2023/03/01 17:00:35;;;;;;;1.42;0.80;;;21.40;50.40;;;;;;10513361;28;20139;-25
2023/03/01 17:05:41;;;;;;;1.48;0.90;;;21.40;50.20;;;;;;10517048;28;20063;-24
2023/03/01 17:10:43;;;;;;;3.42;0.93;;;21.30;50.60;;;;;;10526678;28;20047;-25
2023/03/01 17:15:46;;;;;;;2.70;0.95;;;21.40;50.40;;;;;;10522351;28;20534;-25
2023/03/01 17:20:48;;;;;;;4.78;1.25;;;21.40;50.30;;;;;;10511860;28;20395;-27
2023/03/01 17:25:49;;;;;;;2.25;0.80;;;21.40;50.30;;;;;;10506365;28;20123;-25
2023/03/01 17:30:54;;;;;;;5.65;1.13;;;21.30;50.60;;;;;;10515639;28;20060;-25
2023/03/01 17:35:56;;;;;;;2.33;1.00;;;21.10;50.90;;;;;;10513904;28;20136;-25
2023/03/01 17:41:00;;;;;;;5.47;1.95;;;21.30;51.10;;;;;;10511484;28;20068;-25
2023/03/01 17:46:04;;;;;;;7.90;2.88;;;21.00;52.40;;;;;;10512117;28;20044;-25
2023/03/01 17:51:07;;;;;;;10.68;3.08;;;21.00;52.50;;;;;;10501615;28;20040;-25
2023/03/01 17:56:10;;;;;;;13.32;4.30;;;21.00;52.70;;;;;;10499268;28;20523;-24
2023/03/01 18:01:15;;;;;;;14.43;6.07;;;20.90;52.60;;;;;;10508591;28;20076;-24
2023/03/01 18:06:19;;;;;;;23.17;9.18;;;20.80;53.00;;;;;;10499122;28;20137;-24
2023/03/01 18:11:22;;;;;;;20.35;5.88;;;20.70;53.00;;;;;;10519777;28;20174;-23
2023/03/01 18:16:26;;;;;;;9.50;2.78;;;20.80;52.70;;;;;;10505945;28;20051;-25
2023/03/01 18:21:29;;;;;;;7.63;2.55;;;20.80;52.80;;;;;;10510067;28;20056;-25
2023/03/01 18:26:30;;;;;;;;;;;20.80;53.00;;;;;;10511566;28;20067;-21
2023/03/01 18:31:34;;;;;;;19.80;6.45;;;20.60;53.40;;;;;;10521215;28;20455;-24
2023/03/01 18:36:36;;;;;;;22.20;7.88;;;20.50;53.70;;;;;;10515203;28;20076;-25
2023/03/01 18:41:37;;;;;;;14.73;6.07;;;20.40;53.90;;;;;;10522096;28;20446;-25
2023/03/01 18:46:41;;;;;;;25.02;10.85;;;20.20;54.10;;;;;;10512846;28;20102;-25
2023/03/01 18:51:43;;;;;;;8.82;3.17;;;20.10;54.40;;;;;;10517516;28;20124;-24
2023/03/01 18:56:45;;;;;;;;;;;20.00;54.50;;;;;;10512665;28;20130;-25
2023/03/01 19:01:48;;;;;;;15.13;4.23;;;20.00;54.40;;;;;;10517060;28;19916;-24
2023/03/01 19:06:50;;;;;;;18.80;6.32;;;19.90;54.80;;;;;;10512407;28;20151;-24
2023/03/01 19:11:57;;;;;;;37.20;12.95;;;19.90;55.00;;;;;;10514921;28;20142;-25
2023/03/01 19:17:00;;;;;;;42.78;15.52;;;19.80;55.00;;;;;;10508638;28;20142;-24
2023/03/01 19:22:02;;;;;;;43.78;16.30;;;19.60;55.10;;;;;;10514868;28;20078;-24
2023/03/01 19:27:04;;;;;;;46.55;14.85;;;19.60;55.40;;;;;;10509203;28;20076;-26
2023/03/01 19:32:07;;;;;;;20.70;6.30;;;20.00;56.10;;;;;;10519150;28;20059;-28
2023/03/01 19:37:09;;;;;;;16.65;5.43;;;20.40;55.40;;;;;;10499620;28;20087;-26
2023/03/01 19:42:11;;;;;;;23.85;5.25;;;20.30;54.70;;;;;;10504245;28;20393;-25
2023/03/01 19:47:14;;;;;;;16.40;4.30;;;20.20;54.80;;;;;;10514689;28;20064;-28
2023/03/01 19:52:16;;;;;;;17.45;7.00;;;20.20;54.80;;;;;;10501924;28;20110;-26
2023/03/01 19:57:18;;;;;;;10.60;4.70;;;20.10;54.90;;;;;;10509234;28;20048;-26
2023/03/01 20:02:23;;;;;;;10.55;3.40;;;20.20;54.80;;;;;;10514777;28;20133;-25
2023/03/01 20:07:25;;;;;;;6.32;2.97;;;20.10;54.70;;;;;;10512315;28;20120;-26
2023/03/01 20:12:27;;;;;;;6.38;2.47;;;20.10;54.70;;;;;;10515467;28;20114;-26
2023/03/01 20:17:30;;;;;;;4.60;2.42;;;20.10;54.70;;;;;;10511748;28;20044;-23
2023/03/01 20:22:32;;;;;;;9.75;2.45;;;20.10;54.80;;;;;;10520187;28;20074;-25
2023/03/01 20:27:34;;;;;;;6.38;2.63;;;20.10;54.90;;;;;;10521232;28;20052;-26
2023/03/01 20:32:37;;;;;;;5.35;2.63;;;20.00;54.80;;;;;;10511320;28;20131;-25
2023/03/01 20:37:39;;;;;;;4.47;2.28;;;20.00;54.80;;;;;;10514033;28;20080;-25
2023/03/01 20:42:41;;;;;;;7.53;2.13;;;20.00;54.80;;;;;;10513122;28;20076;-25
2023/03/01 20:47:44;;;;;;;5.65;1.98;;;20.00;54.80;;;;;;10509406;28;20040;-24
2023/03/01 20:52:46;;;;;;;6.53;2.17;;;19.90;54.70;;;;;;10524003;28;20044;-28
2023/03/01 20:57:48;;;;;;;8.07;2.40;;;19.90;54.80;;;;;;10516225;28;20136;-25
2023/03/01 21:02:51;;;;;;;5.93;2.25;;;19.90;54.80;;;;;;10515884;28;20032;-25
2023/03/01 21:07:53;;;;;;;7.65;2.42;;;19.80;54.80;;;;;;10523490;28;20071;-26
2023/03/01 21:12:55;;;;;;;4.55;1.83;;;19.80;54.80;;;;;;10515151;28;20147;-26
2023/03/01 21:17:58;;;;;;;4.78;1.88;;;19.80;54.70;;;;;;10515381;28;20135;-25
2023/03/01 21:23:00;;;;;;;4.82;2.00;;;19.80;54.80;;;;;;10521919;28;20063;-28
2023/03/01 21:28:02;;;;;;;5.60;1.92;;;19.70;54.80;;;;;;10510437;28;20052;-25
2023/03/01 21:33:06;;;;;;;6.05;2.20;;;19.70;54.80;;;;;;10518232;28;20050;-26
2023/03/01 21:38:08;;;;;;;8.23;2.30;;;19.70;54.70;;;;;;10519332;28;20048;-26
2023/03/01 21:43:10;;;;;;;4.05;2.05;;;19.60;55.00;;;;;;10525778;28;20052;-25
2023/03/01 21:48:13;;;;;;;3.92;2.53;;;19.60;55.10;;;;;;10510343;28;20064;-25
2023/03/01 21:53:15;;;;;;;3.38;1.98;;;19.50;55.10;;;;;;10506782;28;20136;-25
2023/03/01 21:58:17;;;;;;;5.75;2.22;;;19.50;55.20;;;;;;10515844;28;20207;-25
2023/03/01 22:03:20;;;;;;;4.95;1.90;;;19.40;55.30;;;;;;10516009;28;20775;-25
2023/03/01 22:08:22;;;;;;;5.95;2.17;;;19.30;55.30;;;;;;10512371;28;20043;-25
2023/03/01 22:13:24;;;;;;;2.80;1.88;;;19.30;55.50;;;;;;10509188;28;20060;-26
2023/03/01 22:18:28;;;;;;;3.53;1.80;;;19.20;55.40;;;;;;10516688;28;20610;-25
2023/03/01 22:23:30;;;;;;;5.00;1.98;;;19.10;55.50;;;;;;10524558;28;20479;-24
2023/03/01 22:28:32;;;;;;;5.85;1.73;;;19.00;55.70;;;;;;10508919;28;20480;-25
2023/03/01 22:33:36;;;;;;;6.30;2.05;;;19.00;55.60;;;;;;10507139;28;20040;-25
2023/03/01 22:38:39;;;;;;;4.07;1.63;;;19.00;55.70;;;;;;10506933;28;20094;-25
2023/03/01 22:43:41;;;;;;;5.72;2.55;;;18.90;55.70;;;;;;10501096;28;20121;-23
2023/03/01 22:48:45;;;;;;;8.40;2.63;;;18.90;55.70;;;;;;10511457;28;20044;-25
2023/03/01 22:53:47;;;;;;;6.38;3.67;;;18.80;55.70;;;;;;10526738;28;20048;-25
2023/03/01 22:58:49;;;;;;;8.80;2.60;;;18.80;55.70;;;;;;10532074;28;20048;-25
2023/03/01 23:03:53;;;;;;;5.28;3.22;;;18.80;55.80;;;;;;10517098;28;20040;-27
2023/03/01 23:08:56;;;;;;;6.55;3.05;;;18.80;55.70;;;;;;10511496;28;20459;-26
2023/03/01 23:13:59;;;;;;;9.85;3.00;;;18.70;55.80;;;;;;10520313;28;20125;-25
2023/03/01 23:19:03;;;;;;;;;;;18.70;55.70;;;;;;10515594;28;20040;-25
2023/03/01 23:24:06;;;;;;;8.25;3.42;;;18.60;55.70;;;;;;10514562;28;19920;-26
2023/03/01 23:29:08;;;;;;;4.03;2.58;;;18.60;55.70;;;;;;10512812;28;20048;-26
2023/03/01 23:34:12;;;;;;;3.03;2.00;;;18.50;55.70;;;;;;10497267;28;20040;-26
2023/03/01 23:39:14;;;;;;;6.80;2.65;;;18.50;55.70;;;;;;10500517;28;20131;-25
2023/03/01 23:44:17;;;;;;;;;;;18.50;55.90;;;;;;10489696;28;20052;-25
2023/03/01 23:49:23;;;;;;;2.63;1.80;;;18.50;56.10;;;;;;10514743;28;20409;-25
2023/03/01 23:54:25;;;;;;;4.68;2.00;;;18.40;56.10;;;;;;10514723;28;20072;-26
2023/03/01 23:59:27;;;;;;;;;;;18.30;56.00;;;;;;10509559;28;20037;-26
